N62LC KADF-KRMG
Flight info
| Callsign | N62LC |
|---|---|
| Flight time | 1h 13m |
| Altitude | 25000 |
| Route | DCT PBF DCT OTB |
| Aircraft | CORS/M-SGC/S |
Departure
| Time | 2026-05-06 19:41 |
|---|---|
| Airport | Dexter B Florence Memorial Field (KADF) |
Arrival
| Time | 2026-05-06 20:54 |
|---|---|
| Airport | Richard B Russell Airport (KRMG) |
| Time | Latitude | Longitude | Altitude | Speed | Heading |
|---|---|---|---|---|---|
| 2026-05-06 19:04 | 34.10451 | -93.06209 | 206 ft | 0 kts | 304° |
| 2026-05-06 19:16 | 34.10464 | -93.06215 | 200 ft | 2 kts | 124° |
| 2026-05-06 19:16 | 34.10452 | -93.06215 | 187 ft | 0 kts | 124° |
| 2026-05-06 19:23 | 34.10440 | -93.06220 | 195 ft | 7 kts | 271° |
| 2026-05-06 19:23 | 34.10433 | -93.06246 | 191 ft | 0 kts | 53° |
| 2026-05-06 19:39 | 34.10448 | -93.06220 | 190 ft | 7 kts | 64° |
| 2026-05-06 19:39 | 34.10478 | -93.06162 | 192 ft | 9 kts | 41° |
| 2026-05-06 19:40 | 34.10519 | -93.06103 | 188 ft | 9 kts | 107° |
| 2026-05-06 19:40 | 34.10481 | -93.06062 | 186 ft | 3 kts | 220° |
| 2026-05-06 19:40 | 34.10401 | -93.06151 | 190 ft | 38 kts | 221° |
| 2026-05-06 19:40 | 34.10063 | -93.06514 | 188 ft | 95 kts | 224° |
| 2026-05-06 19:41 | 34.09420 | -93.07169 | 311 ft | 144 kts | 223° |
| 2026-05-06 19:41 | 34.08554 | -93.07840 | 830 ft | 164 kts | 197° |
| 2026-05-06 19:41 | 34.07350 | -93.07951 | 1367 ft | 185 kts | 171° |
| 2026-05-06 19:41 | 34.06133 | -93.07395 | 1946 ft | 190 kts | 134° |
| 2026-05-06 19:42 | 34.05544 | -93.06022 | 2548 ft | 187 kts | 93° |
| 2026-05-06 19:42 | 34.05389 | -93.04453 | 3102 ft | 192 kts | 94° |
| 2026-05-06 19:42 | 34.05244 | -93.02808 | 3568 ft | 201 kts | 95° |
| 2026-05-06 19:42 | 34.05165 | -93.01136 | 3998 ft | 203 kts | 83° |
| 2026-05-06 19:43 | 34.05742 | -92.99553 | 4274 ft | 211 kts | 52° |
| 2026-05-06 19:43 | 34.06646 | -92.98188 | 4763 ft | 209 kts | 46° |
| 2026-05-06 19:43 | 34.07590 | -92.96874 | 5237 ft | 206 kts | 45° |
| 2026-05-06 19:43 | 34.08527 | -92.95599 | 5668 ft | 206 kts | 45° |
| 2026-05-06 19:44 | 34.09534 | -92.94237 | 5686 ft | 226 kts | 45° |
| 2026-05-06 19:44 | 34.10512 | -92.92715 | 5948 ft | 231 kts | 57° |
| 2026-05-06 19:44 | 34.11229 | -92.91016 | 6381 ft | 225 kts | 65° |
| 2026-05-06 19:44 | 34.11792 | -92.89274 | 6796 ft | 219 kts | 70° |
| 2026-05-06 19:45 | 34.12245 | -92.87547 | 7206 ft | 213 kts | 73° |
| 2026-05-06 19:45 | 34.12651 | -92.85814 | 7631 ft | 219 kts | 74° |
| 2026-05-06 19:45 | 34.13036 | -92.83997 | 8079 ft | 226 kts | 79° |
| 2026-05-06 19:45 | 34.13267 | -92.82113 | 8530 ft | 231 kts | 84° |
| 2026-05-06 19:46 | 34.13465 | -92.80168 | 8997 ft | 236 kts | 83° |
| 2026-05-06 19:46 | 34.13740 | -92.78194 | 9452 ft | 240 kts | 81° |
| 2026-05-06 19:46 | 34.14029 | -92.76196 | 9910 ft | 244 kts | 83° |
| 2026-05-06 19:46 | 34.14286 | -92.74145 | 10335 ft | 248 kts | 84° |
| 2026-05-06 19:47 | 34.14546 | -92.72065 | 10763 ft | 251 kts | 84° |
| 2026-05-06 19:47 | 34.14828 | -92.69967 | 11192 ft | 254 kts | 84° |
| 2026-05-06 19:47 | 34.15107 | -92.67875 | 11620 ft | 257 kts | 85° |
| 2026-05-06 19:47 | 34.15383 | -92.65722 | 12057 ft | 259 kts | 86° |
| 2026-05-06 19:48 | 34.15567 | -92.64285 | 12352 ft | 260 kts | 86° |
| 2026-05-06 19:48 | 34.15948 | -92.61383 | 12955 ft | 263 kts | 86° |
| 2026-05-06 19:48 | 34.16230 | -92.59213 | 13410 ft | 265 kts | 87° |
| 2026-05-06 19:48 | 34.16515 | -92.56999 | 13873 ft | 267 kts | 88° |
| 2026-05-06 19:49 | 34.16802 | -92.54754 | 14286 ft | 274 kts | 88° |
| 2026-05-06 19:49 | 34.17097 | -92.52455 | 14709 ft | 280 kts | 87° |
| 2026-05-06 19:49 | 34.17400 | -92.50128 | 15134 ft | 285 kts | 87° |
| 2026-05-06 19:49 | 34.17710 | -92.47730 | 15567 ft | 291 kts | 87° |
| 2026-05-06 19:50 | 34.18022 | -92.45288 | 16008 ft | 296 kts | 87° |
| 2026-05-06 19:50 | 34.18233 | -92.43646 | 16301 ft | 299 kts | 86° |
| 2026-05-06 19:50 | 34.18554 | -92.41150 | 16748 ft | 303 kts | 86° |
| 2026-05-06 19:50 | 34.18881 | -92.38601 | 17200 ft | 307 kts | 86° |
| 2026-05-06 19:51 | 34.19206 | -92.36055 | 17658 ft | 310 kts | 86° |
| 2026-05-06 19:51 | 34.19537 | -92.33460 | 18128 ft | 311 kts | 86° |
| 2026-05-06 19:51 | 34.19865 | -92.30894 | 18557 ft | 311 kts | 86° |
| 2026-05-06 19:51 | 34.20193 | -92.28318 | 18964 ft | 309 kts | 86° |
| 2026-05-06 19:52 | 34.20519 | -92.25748 | 19374 ft | 307 kts | 86° |
| 2026-05-06 19:52 | 34.20838 | -92.23236 | 19784 ft | 303 kts | 86° |
| 2026-05-06 19:52 | 34.21157 | -92.20716 | 20210 ft | 299 kts | 86° |
| 2026-05-06 19:52 | 34.21468 | -92.18259 | 20622 ft | 295 kts | 86° |
| 2026-05-06 19:53 | 34.21775 | -92.15816 | 20940 ft | 295 kts | 86° |
| 2026-05-06 19:53 | 34.22084 | -92.13353 | 21167 ft | 300 kts | 86° |
| 2026-05-06 19:53 | 34.22398 | -92.10852 | 21508 ft | 301 kts | 86° |
| 2026-05-06 19:53 | 34.22713 | -92.08362 | 21937 ft | 298 kts | 86° |
| 2026-05-06 19:54 | 34.23024 | -92.05875 | 22401 ft | 300 kts | 86° |
| 2026-05-06 19:54 | 34.23333 | -92.03381 | 22866 ft | 303 kts | 86° |
| 2026-05-06 19:54 | 34.23650 | -92.00852 | 23348 ft | 306 kts | 85° |
| 2026-05-06 19:54 | 34.23972 | -91.98278 | 23805 ft | 310 kts | 85° |
| 2026-05-06 19:55 | 34.24311 | -91.95704 | 24211 ft | 313 kts | 85° |
| 2026-05-06 19:55 | 34.24606 | -91.93077 | 24596 ft | 317 kts | 88° |
| 2026-05-06 19:55 | 34.24773 | -91.90396 | 24801 ft | 326 kts | 96° |
| 2026-05-06 19:55 | 34.24713 | -91.87605 | 24916 ft | 338 kts | 100° |
| 2026-05-06 19:56 | 34.24675 | -91.84676 | 25012 ft | 353 kts | 94° |
| 2026-05-06 19:56 | 34.24758 | -91.81743 | 25226 ft | 351 kts | 95° |
| 2026-05-06 19:56 | 34.24746 | -91.78779 | 25410 ft | 353 kts | 97° |
| 2026-05-06 19:56 | 34.24735 | -91.75757 | 25504 ft | 357 kts | 95° |
| 2026-05-06 19:57 | 34.24779 | -91.72767 | 25501 ft | 360 kts | 95° |
| 2026-05-06 19:57 | 34.24781 | -91.69697 | 25372 ft | 367 kts | 96° |
| 2026-05-06 19:57 | 34.24776 | -91.66596 | 25237 ft | 373 kts | 95° |
| 2026-05-06 19:57 | 34.24804 | -91.63437 | 25155 ft | 375 kts | 95° |
| 2026-05-06 19:58 | 34.24812 | -91.60295 | 25117 ft | 375 kts | 96° |
| 2026-05-06 19:58 | 34.24809 | -91.57130 | 25091 ft | 376 kts | 95° |
| 2026-05-06 19:58 | 34.24885 | -91.53988 | 25070 ft | 377 kts | 91° |
| 2026-05-06 19:58 | 34.25013 | -91.50793 | 25051 ft | 377 kts | 93° |
| 2026-05-06 19:59 | 34.25063 | -91.47668 | 25017 ft | 377 kts | 94° |
| 2026-05-06 19:59 | 34.25142 | -91.44496 | 24991 ft | 378 kts | 92° |
| 2026-05-06 19:59 | 34.25246 | -91.41299 | 24976 ft | 377 kts | 93° |
| 2026-05-06 19:59 | 34.25312 | -91.38161 | 24968 ft | 376 kts | 94° |
| 2026-05-06 20:00 | 34.25387 | -91.34993 | 24965 ft | 375 kts | 93° |
| 2026-05-06 20:00 | 34.25477 | -91.31827 | 24960 ft | 374 kts | 93° |
| 2026-05-06 20:00 | 34.25549 | -91.28707 | 24959 ft | 373 kts | 94° |
| 2026-05-06 20:00 | 34.25621 | -91.25574 | 24960 ft | 372 kts | 93° |
| 2026-05-06 20:01 | 34.25701 | -91.22459 | 24960 ft | 371 kts | 93° |
| 2026-05-06 20:01 | 34.25775 | -91.19335 | 24957 ft | 371 kts | 94° |
| 2026-05-06 20:01 | 34.25846 | -91.16213 | 24954 ft | 370 kts | 94° |
| 2026-05-06 20:01 | 34.25920 | -91.13090 | 24956 ft | 369 kts | 94° |
| 2026-05-06 20:02 | 34.25992 | -91.10018 | 24952 ft | 368 kts | 94° |
| 2026-05-06 20:02 | 34.26061 | -91.06921 | 24954 ft | 367 kts | 94° |
| 2026-05-06 20:02 | 34.26130 | -91.03858 | 24953 ft | 366 kts | 94° |
| 2026-05-06 20:02 | 34.26200 | -91.00753 | 24949 ft | 365 kts | 94° |
| 2026-05-06 20:03 | 34.26268 | -90.97695 | 24946 ft | 365 kts | 94° |
| 2026-05-06 20:03 | 34.26335 | -90.94624 | 24945 ft | 364 kts | 94° |
| 2026-05-06 20:03 | 34.26399 | -90.91598 | 24951 ft | 363 kts | 94° |
| 2026-05-06 20:03 | 34.26464 | -90.88561 | 24959 ft | 363 kts | 94° |
| 2026-05-06 20:04 | 34.26530 | -90.85469 | 24962 ft | 363 kts | 94° |
| 2026-05-06 20:04 | 34.26592 | -90.82429 | 24971 ft | 363 kts | 94° |
| 2026-05-06 20:04 | 34.26655 | -90.79367 | 24967 ft | 363 kts | 94° |
| 2026-05-06 20:04 | 34.26718 | -90.76318 | 24973 ft | 363 kts | 94° |
| 2026-05-06 20:05 | 34.26778 | -90.73280 | 24978 ft | 364 kts | 94° |
| 2026-05-06 20:05 | 34.26839 | -90.70200 | 24979 ft | 364 kts | 94° |
| 2026-05-06 20:05 | 34.26899 | -90.67164 | 24983 ft | 365 kts | 94° |
| 2026-05-06 20:05 | 34.26958 | -90.64084 | 24987 ft | 365 kts | 94° |
| 2026-05-06 20:06 | 34.27016 | -90.61027 | 24992 ft | 366 kts | 94° |
| 2026-05-06 20:06 | 34.27075 | -90.57936 | 24992 ft | 366 kts | 94° |
| 2026-05-06 20:06 | 34.27132 | -90.54832 | 24990 ft | 367 kts | 94° |
| 2026-05-06 20:06 | 34.27188 | -90.51769 | 24989 ft | 368 kts | 94° |
| 2026-05-06 20:07 | 34.27245 | -90.48668 | 24988 ft | 368 kts | 94° |
| 2026-05-06 20:07 | 34.27300 | -90.45547 | 24990 ft | 369 kts | 94° |
| 2026-05-06 20:07 | 34.27354 | -90.42462 | 24988 ft | 370 kts | 94° |
| 2026-05-06 20:07 | 34.27408 | -90.39347 | 24989 ft | 371 kts | 94° |
| 2026-05-06 20:08 | 34.27462 | -90.36221 | 24985 ft | 372 kts | 94° |
| 2026-05-06 20:08 | 34.27514 | -90.33098 | 24976 ft | 373 kts | 94° |
| 2026-05-06 20:08 | 34.27566 | -90.29946 | 24969 ft | 375 kts | 94° |
| 2026-05-06 20:08 | 34.27618 | -90.26792 | 24959 ft | 376 kts | 94° |
| 2026-05-06 20:09 | 34.27668 | -90.23650 | 24954 ft | 376 kts | 94° |
| 2026-05-06 20:09 | 34.27718 | -90.20462 | 24946 ft | 377 kts | 94° |
| 2026-05-06 20:09 | 34.27768 | -90.17289 | 24928 ft | 378 kts | 94° |
| 2026-05-06 20:09 | 34.27816 | -90.14127 | 24934 ft | 378 kts | 94° |
| 2026-05-06 20:10 | 34.27864 | -90.10946 | 24933 ft | 378 kts | 94° |
| 2026-05-06 20:10 | 34.27911 | -90.07732 | 24935 ft | 379 kts | 94° |
| 2026-05-06 20:10 | 34.27957 | -90.04563 | 24938 ft | 379 kts | 94° |
| 2026-05-06 20:10 | 34.28003 | -90.01360 | 24936 ft | 379 kts | 94° |
| 2026-05-06 20:11 | 34.28047 | -89.98195 | 24940 ft | 379 kts | 94° |
| 2026-05-06 20:11 | 34.28091 | -89.94990 | 24941 ft | 379 kts | 94° |
| 2026-05-06 20:11 | 34.28133 | -89.91811 | 24943 ft | 379 kts | 94° |
| 2026-05-06 20:11 | 34.28176 | -89.88606 | 24942 ft | 379 kts | 94° |
| 2026-05-06 20:12 | 34.28217 | -89.85452 | 24943 ft | 379 kts | 94° |
| 2026-05-06 20:12 | 34.28257 | -89.82261 | 24943 ft | 379 kts | 94° |
| 2026-05-06 20:12 | 34.28297 | -89.79031 | 24942 ft | 380 kts | 94° |
| 2026-05-06 20:12 | 34.28336 | -89.75877 | 24940 ft | 380 kts | 94° |
| 2026-05-06 20:13 | 34.28374 | -89.72661 | 24936 ft | 380 kts | 94° |
| 2026-05-06 20:13 | 34.28411 | -89.69462 | 24948 ft | 380 kts | 94° |
| 2026-05-06 20:13 | 34.28448 | -89.66264 | 24951 ft | 380 kts | 94° |
| 2026-05-06 20:13 | 34.28483 | -89.63075 | 24953 ft | 380 kts | 94° |
| 2026-05-06 20:14 | 34.28518 | -89.59898 | 24958 ft | 380 kts | 94° |
| 2026-05-06 20:14 | 34.28552 | -89.56680 | 24960 ft | 380 kts | 94° |
| 2026-05-06 20:14 | 34.28584 | -89.53517 | 24963 ft | 379 kts | 94° |
| 2026-05-06 20:14 | 34.28616 | -89.50299 | 24961 ft | 379 kts | 94° |
| 2026-05-06 20:15 | 34.28648 | -89.47120 | 24957 ft | 379 kts | 94° |
| 2026-05-06 20:15 | 34.28679 | -89.43944 | 24954 ft | 379 kts | 94° |
| 2026-05-06 20:15 | 34.28708 | -89.40753 | 24953 ft | 379 kts | 94° |
| 2026-05-06 20:15 | 34.28737 | -89.37556 | 24948 ft | 380 kts | 94° |
| 2026-05-06 20:16 | 34.28765 | -89.34344 | 24942 ft | 380 kts | 94° |
| 2026-05-06 20:16 | 34.28793 | -89.31174 | 24938 ft | 381 kts | 94° |
| 2026-05-06 20:16 | 34.28819 | -89.27989 | 24929 ft | 381 kts | 94° |
| 2026-05-06 20:16 | 34.28844 | -89.24771 | 24922 ft | 380 kts | 94° |
| 2026-05-06 20:17 | 34.28869 | -89.21556 | 24918 ft | 380 kts | 94° |
| 2026-05-06 20:17 | 34.28893 | -89.18392 | 24912 ft | 380 kts | 94° |
| 2026-05-06 20:17 | 34.28917 | -89.15196 | 24904 ft | 380 kts | 94° |
| 2026-05-06 20:17 | 34.28938 | -89.12025 | 24902 ft | 380 kts | 94° |
| 2026-05-06 20:18 | 34.28959 | -89.08804 | 24904 ft | 380 kts | 94° |
| 2026-05-06 20:18 | 34.28981 | -89.05641 | 24904 ft | 380 kts | 94° |
| 2026-05-06 20:18 | 34.29000 | -89.02421 | 24907 ft | 380 kts | 94° |
| 2026-05-06 20:18 | 34.29018 | -88.99230 | 24907 ft | 380 kts | 94° |
| 2026-05-06 20:19 | 34.29038 | -88.96030 | 24906 ft | 380 kts | 94° |
| 2026-05-06 20:19 | 34.29055 | -88.92839 | 24912 ft | 380 kts | 94° |
| 2026-05-06 20:19 | 34.29070 | -88.89660 | 24915 ft | 380 kts | 94° |
| 2026-05-06 20:19 | 34.29086 | -88.86456 | 24921 ft | 381 kts | 94° |
| 2026-05-06 20:20 | 34.29102 | -88.83240 | 24915 ft | 381 kts | 94° |
| 2026-05-06 20:20 | 34.29116 | -88.80057 | 24915 ft | 381 kts | 94° |
| 2026-05-06 20:20 | 34.29128 | -88.76841 | 24913 ft | 381 kts | 94° |
| 2026-05-06 20:20 | 34.29141 | -88.73614 | 24915 ft | 381 kts | 94° |
| 2026-05-06 20:21 | 34.29153 | -88.70429 | 24911 ft | 380 kts | 94° |
| 2026-05-06 20:21 | 34.29163 | -88.67209 | 24915 ft | 380 kts | 94° |
| 2026-05-06 20:21 | 34.29173 | -88.64054 | 24912 ft | 380 kts | 94° |
| 2026-05-06 20:21 | 34.29183 | -88.60842 | 24909 ft | 379 kts | 94° |
| 2026-05-06 20:22 | 34.29191 | -88.57657 | 24906 ft | 379 kts | 94° |
| 2026-05-06 20:22 | 34.29197 | -88.54458 | 24905 ft | 379 kts | 94° |
| 2026-05-06 20:22 | 34.29204 | -88.51294 | 24901 ft | 379 kts | 94° |
| 2026-05-06 20:22 | 34.29210 | -88.48079 | 24896 ft | 378 kts | 94° |
| 2026-05-06 20:23 | 34.29215 | -88.44934 | 24893 ft | 378 kts | 94° |
| 2026-05-06 20:23 | 34.29218 | -88.41723 | 24895 ft | 378 kts | 94° |
| 2026-05-06 20:23 | 34.29222 | -88.38561 | 24885 ft | 379 kts | 94° |
| 2026-05-06 20:23 | 34.29224 | -88.35361 | 24888 ft | 379 kts | 94° |
| 2026-05-06 20:24 | 34.29226 | -88.32165 | 24886 ft | 379 kts | 94° |
| 2026-05-06 20:24 | 34.29227 | -88.28997 | 24885 ft | 379 kts | 94° |
| 2026-05-06 20:24 | 34.29226 | -88.25794 | 24881 ft | 379 kts | 94° |
| 2026-05-06 20:24 | 34.29225 | -88.22624 | 24878 ft | 379 kts | 94° |
| 2026-05-06 20:25 | 34.29224 | -88.19406 | 24878 ft | 379 kts | 94° |
| 2026-05-06 20:25 | 34.29221 | -88.16228 | 24878 ft | 378 kts | 94° |
| 2026-05-06 20:25 | 34.29217 | -88.13064 | 24878 ft | 378 kts | 94° |
| 2026-05-06 20:25 | 34.29215 | -88.10903 | 24883 ft | 378 kts | 94° |
| 2026-05-06 20:26 | 34.29211 | -88.07730 | 24876 ft | 378 kts | 94° |
| 2026-05-06 20:26 | 34.29205 | -88.04581 | 24878 ft | 378 kts | 94° |
| 2026-05-06 20:26 | 34.29198 | -88.01393 | 24879 ft | 379 kts | 94° |
| 2026-05-06 20:26 | 34.29191 | -87.98191 | 24878 ft | 379 kts | 94° |
| 2026-05-06 20:27 | 34.29182 | -87.95020 | 24871 ft | 379 kts | 94° |
| 2026-05-06 20:27 | 34.29174 | -87.91808 | 24876 ft | 380 kts | 94° |
| 2026-05-06 20:27 | 34.29165 | -87.88634 | 24876 ft | 380 kts | 94° |
| 2026-05-06 20:27 | 34.29153 | -87.85433 | 24871 ft | 380 kts | 94° |
| 2026-05-06 20:28 | 34.29141 | -87.82222 | 24870 ft | 380 kts | 94° |
| 2026-05-06 20:28 | 34.29131 | -87.79060 | 24871 ft | 379 kts | 94° |
| 2026-05-06 20:28 | 34.29117 | -87.75843 | 24871 ft | 379 kts | 94° |
| 2026-05-06 20:28 | 34.29102 | -87.72687 | 24868 ft | 378 kts | 94° |
| 2026-05-06 20:29 | 34.29089 | -87.69510 | 24872 ft | 377 kts | 94° |
| 2026-05-06 20:29 | 34.29073 | -87.66324 | 24872 ft | 377 kts | 94° |
| 2026-05-06 20:29 | 34.29056 | -87.63143 | 24872 ft | 377 kts | 94° |
| 2026-05-06 20:29 | 34.29040 | -87.60011 | 24875 ft | 377 kts | 94° |
| 2026-05-06 20:30 | 34.29022 | -87.56816 | 24872 ft | 377 kts | 94° |
| 2026-05-06 20:30 | 34.28984 | -87.50491 | 24870 ft | 377 kts | 94° |
| 2026-05-06 20:30 | 34.28963 | -87.47301 | 24867 ft | 377 kts | 94° |
| 2026-05-06 20:31 | 34.28942 | -87.44129 | 24866 ft | 376 kts | 94° |
| 2026-05-06 20:31 | 34.28920 | -87.40994 | 24868 ft | 375 kts | 94° |
| 2026-05-06 20:31 | 34.28898 | -87.37840 | 24869 ft | 374 kts | 94° |
| 2026-05-06 20:31 | 34.28875 | -87.34723 | 24871 ft | 373 kts | 94° |
| 2026-05-06 20:32 | 34.28849 | -87.31570 | 24870 ft | 372 kts | 94° |
| 2026-05-06 20:32 | 34.28825 | -87.28466 | 24871 ft | 371 kts | 94° |
| 2026-05-06 20:32 | 34.28801 | -87.25338 | 24875 ft | 371 kts | 94° |
| 2026-05-06 20:32 | 34.28773 | -87.22208 | 24881 ft | 370 kts | 94° |
| 2026-05-06 20:33 | 34.28747 | -87.19119 | 24880 ft | 370 kts | 94° |
| 2026-05-06 20:33 | 34.28719 | -87.15993 | 24895 ft | 371 kts | 94° |
| 2026-05-06 20:33 | 34.28689 | -87.12887 | 24893 ft | 373 kts | 94° |
| 2026-05-06 20:33 | 34.28660 | -87.09722 | 24883 ft | 374 kts | 94° |
| 2026-05-06 20:34 | 34.28630 | -87.06598 | 24881 ft | 374 kts | 94° |
| 2026-05-06 20:34 | 34.28598 | -87.03439 | 24883 ft | 375 kts | 94° |
| 2026-05-06 20:34 | 34.28566 | -87.00275 | 24879 ft | 375 kts | 94° |
| 2026-05-06 20:34 | 34.28533 | -86.97136 | 24875 ft | 375 kts | 94° |
| 2026-05-06 20:35 | 34.28500 | -86.93974 | 24876 ft | 374 kts | 94° |
| 2026-05-06 20:35 | 34.28464 | -86.90823 | 24878 ft | 372 kts | 94° |
| 2026-05-06 20:35 | 34.28429 | -86.87717 | 24875 ft | 372 kts | 94° |
| 2026-05-06 20:35 | 34.28394 | -86.84610 | 24879 ft | 371 kts | 94° |
| 2026-05-06 20:36 | 34.28357 | -86.81474 | 24881 ft | 371 kts | 94° |
| 2026-05-06 20:36 | 34.28319 | -86.78381 | 24880 ft | 371 kts | 94° |
| 2026-05-06 20:36 | 34.28281 | -86.75244 | 24882 ft | 371 kts | 94° |
| 2026-05-06 20:36 | 34.28244 | -86.72147 | 24882 ft | 371 kts | 94° |
| 2026-05-06 20:37 | 34.28202 | -86.69023 | 24882 ft | 368 kts | 94° |
| 2026-05-06 20:37 | 34.28161 | -86.65922 | 24884 ft | 366 kts | 94° |
| 2026-05-06 20:37 | 34.28122 | -86.62885 | 24892 ft | 364 kts | 94° |
| 2026-05-06 20:37 | 34.28081 | -86.59803 | 24886 ft | 363 kts | 94° |
| 2026-05-06 20:38 | 34.28038 | -86.56773 | 24883 ft | 360 kts | 94° |
| 2026-05-06 20:38 | 34.27996 | -86.53752 | 24891 ft | 358 kts | 94° |
| 2026-05-06 20:38 | 34.27955 | -86.50766 | 24900 ft | 358 kts | 94° |
| 2026-05-06 20:38 | 34.27909 | -86.47746 | 24892 ft | 357 kts | 94° |
| 2026-05-06 20:39 | 34.27865 | -86.44749 | 24893 ft | 355 kts | 94° |
| 2026-05-06 20:39 | 34.27822 | -86.41765 | 24894 ft | 354 kts | 94° |
| 2026-05-06 20:39 | 34.27775 | -86.38809 | 24897 ft | 352 kts | 94° |
| 2026-05-06 20:39 | 34.27730 | -86.35843 | 24896 ft | 351 kts | 94° |
| 2026-05-06 20:40 | 34.27684 | -86.32879 | 24899 ft | 349 kts | 94° |
| 2026-05-06 20:40 | 34.27636 | -86.29963 | 24896 ft | 348 kts | 94° |
| 2026-05-06 20:40 | 34.27589 | -86.27026 | 24897 ft | 348 kts | 94° |
| 2026-05-06 20:40 | 34.27542 | -86.24137 | 24898 ft | 347 kts | 94° |
| 2026-05-06 20:41 | 34.27492 | -86.21193 | 24899 ft | 347 kts | 94° |
| 2026-05-06 20:41 | 34.27443 | -86.18288 | 24897 ft | 346 kts | 94° |
| 2026-05-06 20:41 | 34.27394 | -86.15370 | 24895 ft | 346 kts | 94° |
| 2026-05-06 20:41 | 34.27343 | -86.12463 | 24895 ft | 345 kts | 94° |
| 2026-05-06 20:42 | 34.27292 | -86.09576 | 24894 ft | 345 kts | 94° |
| 2026-05-06 20:42 | 34.27241 | -86.06678 | 24891 ft | 343 kts | 94° |
| 2026-05-06 20:42 | 34.27189 | -86.03809 | 24894 ft | 342 kts | 94° |
| 2026-05-06 20:42 | 34.27135 | -86.00912 | 24895 ft | 341 kts | 94° |
| 2026-05-06 20:43 | 34.27083 | -85.98080 | 24895 ft | 340 kts | 94° |
| 2026-05-06 20:43 | 34.27029 | -85.95216 | 24895 ft | 339 kts | 94° |
| 2026-05-06 20:43 | 34.26975 | -85.92363 | 24894 ft | 339 kts | 94° |
| 2026-05-06 20:43 | 34.26920 | -85.89504 | 24892 ft | 339 kts | 94° |
| 2026-05-06 20:44 | 34.26865 | -85.86677 | 24891 ft | 338 kts | 94° |
| 2026-05-06 20:44 | 34.26809 | -85.83854 | 24895 ft | 338 kts | 94° |
| 2026-05-06 20:44 | 34.26753 | -85.80997 | 24890 ft | 337 kts | 94° |
| 2026-05-06 20:44 | 34.26695 | -85.78178 | 24906 ft | 338 kts | 94° |
| 2026-05-06 20:45 | 34.26636 | -85.75301 | 24913 ft | 341 kts | 94° |
| 2026-05-06 20:45 | 34.26579 | -85.72450 | 24893 ft | 343 kts | 94° |
| 2026-05-06 20:45 | 34.26518 | -85.69575 | 24885 ft | 342 kts | 94° |
| 2026-05-06 20:45 | 34.26457 | -85.66686 | 24889 ft | 341 kts | 94° |
| 2026-05-06 20:46 | 34.26395 | -85.63805 | 24890 ft | 340 kts | 94° |
| 2026-05-06 20:46 | 34.26334 | -85.60949 | 24886 ft | 339 kts | 94° |
| 2026-05-06 20:46 | 34.26272 | -85.58136 | 24884 ft | 339 kts | 94° |
| 2026-05-06 20:46 | 34.26209 | -85.55269 | 24888 ft | 338 kts | 94° |
| 2026-05-06 20:47 | 34.26147 | -85.52434 | 24892 ft | 337 kts | 94° |
| 2026-05-06 20:47 | 34.26082 | -85.49577 | 24893 ft | 337 kts | 94° |
| 2026-05-06 20:47 | 34.26018 | -85.46769 | 24888 ft | 337 kts | 94° |
| 2026-05-06 20:47 | 34.25953 | -85.43924 | 24888 ft | 336 kts | 94° |
| 2026-05-06 20:48 | 34.25888 | -85.41119 | 24889 ft | 336 kts | 94° |
| 2026-05-06 20:48 | 34.25822 | -85.38306 | 24886 ft | 333 kts | 94° |
| 2026-05-06 20:48 | 34.25945 | -85.35626 | 24226 ft | 297 kts | 58° |
| 2026-05-06 20:48 | 34.25933 | -85.32805 | 21027 ft | 378 kts | 134° |
| 2026-05-06 20:49 | 34.25078 | -85.29811 | 20106 ft | 382 kts | 100° |
| 2026-05-06 20:49 | 34.24805 | -85.26829 | 19680 ft | 326 kts | 97° |
| 2026-05-06 20:49 | 34.24702 | -85.23753 | 15978 ft | 409 kts | 77° |
| 2026-05-06 20:49 | 34.24636 | -85.20420 | 12659 ft | 440 kts | 116° |
| 2026-05-06 20:50 | 34.24359 | -85.17047 | 12634 ft | 384 kts | 85° |
| 2026-05-06 20:50 | 34.25923 | -85.15175 | 12675 ft | 306 kts | 5° |
| 2026-05-06 20:50 | 34.27814 | -85.15527 | 10336 ft | 216 kts | 0° |
| 2026-05-06 20:50 | 34.27975 | -85.15609 | 5047 ft | 345 kts | 2° |
| 2026-05-06 20:51 | 34.29651 | -85.14783 | 4238 ft | 275 kts | 298° |
| 2026-05-06 20:51 | 34.30932 | -85.16040 | 3387 ft | 236 kts | 328° |
| 2026-05-06 20:51 | 34.32483 | -85.16005 | 1841 ft | 247 kts | 334° |
| 2026-05-06 20:51 | 34.34130 | -85.15906 | 767 ft | 236 kts | 2° |
| 2026-05-06 20:52 | 34.35603 | -85.15786 | 679 ft | 187 kts | 5° |
| 2026-05-06 20:52 | 34.36694 | -85.15418 | 900 ft | 146 kts | 30° |
| 2026-05-06 20:52 | 34.37547 | -85.15133 | 1025 ft | 123 kts | 329° |
| 2026-05-06 20:52 | 34.37792 | -85.15921 | 1157 ft | 115 kts | 231° |
| 2026-05-06 20:53 | 34.37019 | -85.15845 | 845 ft | 122 kts | 163° |
| 2026-05-06 20:53 | 34.36254 | -85.15745 | 734 ft | 102 kts | 186° |
| 2026-05-06 20:53 | 34.35587 | -85.15797 | 643 ft | 88 kts | 189° |
| 2026-05-06 20:53 | 34.35042 | -85.15858 | 648 ft | 68 kts | 188° |
| 2026-05-06 20:54 | 34.34615 | -85.15902 | 639 ft | 56 kts | 188° |
| 2026-05-06 20:54 | 34.34336 | -85.15955 | 639 ft | 28 kts | 182° |
| 2026-05-06 20:54 | 34.34293 | -85.16006 | 639 ft | 12 kts | 325° |
| 2026-05-06 20:54 | 34.34474 | -85.16069 | 639 ft | 41 kts | 342° |
| 2026-05-06 20:55 | 34.34811 | -85.16068 | 640 ft | 50 kts | 349° |
| 2026-05-06 20:55 | 34.35147 | -85.16045 | 638 ft | 41 kts | 316° |
| 2026-05-06 20:55 | 34.35149 | -85.16120 | 639 ft | 0 kts | 339° |